Time;durP1;ratioP1;P1;durP2;ratioP2;P2;SDS_P1;SDS_P2;PMS_P1;PMS_P2;Temp;Humidity;BMP_temperature;BMP_pressure;BME280_temperature;BME280_humidity;BME280_pressure;Samples;Min_cycle;Max_cycle;Signal;HPM_P1;HPM_P2
2022/07/14 00:01:37;;;;;;;4.77;2.87;;;23.80;72.20;;;;;;5051167;28;20175;-65
2022/07/14 00:04:04;;;;;;;7.73;2.63;;;23.80;72.90;;;;;;5051662;28;20175;-66
2022/07/14 00:06:30;;;;;;;13.40;3.30;;;23.80;72.30;;;;;;5049740;28;20425;-65
2022/07/14 00:08:56;;;;;;;11.00;3.07;;;23.80;71.40;;;;;;5050389;28;20405;-66
2022/07/14 00:11:22;;;;;;;7.20;2.77;;;23.80;72.10;;;;;;5050932;28;20290;-65
2022/07/14 00:13:47;;;;;;;7.53;2.50;;;23.80;72.70;;;;;;5051219;28;20174;-65
2022/07/14 00:16:13;;;;;;;5.80;2.30;;;23.70;69.80;;;;;;5051127;28;20257;-65
2022/07/14 00:18:43;;;;;;;3.93;2.83;;;23.70;69.40;;;;;;5050487;28;20163;-64
2022/07/14 00:21:13;;;;;;;5.37;2.60;;;23.70;69.20;;;;;;5051359;28;20198;-66
2022/07/14 00:23:39;;;;;;;10.50;2.50;;;23.60;68.40;;;;;;5051035;28;20403;-65
2022/07/14 00:26:05;;;;;;;10.97;2.40;;;23.50;67.90;;;;;;5032823;28;20418;-65
2022/07/14 00:28:32;;;;;;;10.63;2.30;;;23.50;67.60;;;;;;5050131;28;20467;-65
2022/07/14 00:31:03;;;;;;;13.17;3.87;;;23.50;68.30;;;;;;5050070;28;20768;-65
2022/07/14 00:33:30;;;;;;;3.40;2.20;;;23.30;69.10;;;;;;5051145;28;20737;-66
2022/07/14 00:35:56;;;;;;;4.00;2.80;;;23.10;90.10;;;;;;5051343;28;20455;-65
2022/07/14 00:38:22;;;;;;;5.33;2.10;;;23.00;73.80;;;;;;5049645;28;20412;-65
2022/07/14 00:40:47;;;;;;;4.77;2.70;;;23.10;76.70;;;;;;5050908;28;20904;-65
2022/07/14 00:43:13;;;;;;;8.50;2.87;;;23.10;79.60;;;;;;5063224;28;20182;-64
2022/07/14 00:45:39;;;;;;;7.20;3.03;;;23.20;83.20;;;;;;5070971;28;20603;-65
2022/07/14 00:48:06;;;;;;;10.23;3.17;;;23.20;85.80;;;;;;5069790;28;20178;-66
2022/07/14 00:50:32;;;;;;;5.87;2.33;;;23.00;88.80;;;;;;5070507;28;20681;-64
2022/07/14 00:52:58;;;;;;;9.67;3.10;;;23.10;91.10;;;;;;5070227;28;20421;-66
2022/07/14 00:55:24;;;;;;;4.30;2.93;;;23.10;92.40;;;;;;5065005;28;20713;-66
2022/07/14 00:57:50;;;;;;;5.70;3.10;;;23.10;93.00;;;;;;5049978;28;20182;-65
2022/07/14 01:00:18;;;;;;;6.97;2.90;;;23.10;94.40;;;;;;5049770;28;20194;-67
2022/07/14 01:02:45;;;;;;;5.83;2.93;;;23.10;94.70;;;;;;5049881;28;20424;-66
2022/07/14 01:05:11;;;;;;;6.87;3.00;;;23.00;94.70;;;;;;5050690;28;20413;-67
2022/07/14 01:07:37;;;;;;;4.53;2.80;;;23.00;95.80;;;;;;5049129;28;20478;-65
2022/07/14 01:10:03;;;;;;;7.40;2.93;;;23.00;95.60;;;;;;5049811;28;20206;-65
2022/07/14 01:12:31;;;;;;;17.63;3.87;;;23.00;96.10;;;;;;5049607;28;20241;-63
2022/07/14 01:14:57;;;;;;;6.93;2.63;;;22.90;96.70;;;;;;5050003;28;20417;-66
2022/07/14 01:17:23;;;;;;;12.47;2.80;;;22.90;97.50;;;;;;5049129;28;20405;-65
2022/07/14 01:19:48;;;;;;;4.73;2.60;;;22.90;97.30;;;;;;5050089;28;20281;-65
2022/07/14 01:22:15;;;;;;;6.90;2.60;;;22.80;97.60;;;;;;5049473;28;20185;-65
2022/07/14 01:24:41;;;;;;;8.63;2.50;;;22.90;99.90;;;;;;5047976;28;20258;-67
2022/07/14 01:27:07;;;;;;;3.63;2.47;;;22.80;98.70;;;;;;5048982;28;20455;-66
2022/07/14 01:29:32;;;;;;;3.97;2.47;;;22.80;98.80;;;;;;5049480;28;20437;-64
2022/07/14 01:31:58;;;;;;;5.33;2.27;;;22.60;98.80;;;;;;5049602;28;20586;-67
2022/07/14 01:34:24;;;;;;;6.00;2.87;;;22.60;98.90;;;;;;5049818;28;20581;-65
2022/07/14 01:36:52;;;;;;;5.87;3.03;;;22.60;98.80;;;;;;5049680;28;20627;-66
2022/07/14 01:39:18;;;;;;;3.70;2.30;;;22.70;98.50;;;;;;5048436;28;20170;-64
2022/07/14 01:41:45;;;;;;;6.40;2.30;;;22.80;98.00;;;;;;5049652;28;20414;-66
2022/07/14 01:44:10;;;;;;;2.50;2.07;;;22.80;97.40;;;;;;5069655;28;20512;-66
2022/07/14 01:46:37;;;;;;;7.60;2.57;;;22.90;97.20;;;;;;5069374;28;20408;-65
2022/07/14 01:49:07;;;;;;;3.07;2.43;;;22.90;97.10;;;;;;5056929;28;20242;-66
2022/07/14 01:51:33;;;;;;;26.30;4.27;;;22.80;96.30;;;;;;5029832;28;20457;-65
2022/07/14 01:53:58;;;;;;;13.37;2.60;;;22.80;96.40;;;;;;5029734;28;20432;-65
2022/07/14 01:56:24;;;;;;;7.30;2.50;;;22.80;96.20;;;;;;5044452;28;21257;-64
2022/07/14 01:58:50;;;;;;;9.83;2.73;;;22.70;96.00;;;;;;5049810;28;20175;-66
2022/07/14 02:04:01;;;;;;;4.47;2.63;;;22.70;94.80;;;;;;5049868;28;20228;-66
2022/07/14 02:06:27;;;;;;;5.30;2.40;;;22.70;94.50;;;;;;5049180;28;20405;-65
2022/07/14 02:08:53;;;;;;;5.13;2.20;;;22.80;94.60;;;;;;5048074;28;20414;-65
2022/07/14 02:14:03;;;;;;;4.10;2.03;;;22.70;92.80;;;;;;5049511;28;20702;-66
2022/07/14 02:16:30;;;;;;;10.33;1.97;;;22.60;92.00;;;;;;5048432;28;20428;-65
2022/07/14 02:18:56;;;;;;;5.33;2.37;;;22.60;91.50;;;;;;5048273;28;20413;-66
2022/07/14 02:21:23;;;;;;;12.00;2.50;;;22.50;91.20;;;;;;5049125;28;20471;-67
2022/07/14 02:23:49;;;;;;;5.20;2.70;;;22.40;91.10;;;;;;5048450;28;20542;-65
2022/07/14 02:26:15;;;;;;;24.83;3.17;;;22.40;90.70;;;;;;5029252;28;20508;-66
2022/07/14 02:28:41;;;;;;;7.37;3.33;;;22.40;90.80;;;;;;5047871;28;20167;-66
2022/07/14 02:31:09;;;;;;;6.43;2.60;;;22.50;91.60;;;;;;5048074;28;20202;-66
2022/07/14 02:33:35;;;;;;;8.00;3.40;;;22.50;91.10;;;;;;5048778;28;20433;-67
2022/07/14 02:36:01;;;;;;;7.93;3.20;;;22.60;90.90;;;;;;5049080;28;20410;-65
2022/07/14 02:38:27;;;;;;;8.43;2.97;;;22.60;91.20;;;;;;5047924;28;20467;-67
2022/07/14 02:40:53;;;;;;;4.20;3.27;;;22.60;94.90;;;;;;5048833;28;20422;-67
2022/07/14 02:43:19;;;;;;;7.00;3.97;;;22.60;91.90;;;;;;5061567;28;20584;-67
2022/07/14 02:45:44;;;;;;;6.73;3.63;;;22.60;91.70;;;;;;5069321;28;20967;-67
2022/07/14 02:48:11;;;;;;;13.47;4.10;;;22.50;92.10;;;;;;5067950;28;20244;-67
2022/07/14 02:50:36;;;;;;;14.53;4.10;;;22.60;92.50;;;;;;5068836;28;20197;-67
2022/07/14 02:53:05;;;;;;;8.73;3.73;;;22.60;93.10;;;;;;5068066;28;20408;-67
2022/07/14 02:55:31;;;;;;;5.50;3.00;;;22.60;93.60;;;;;;5062051;28;20300;-67
2022/07/14 02:57:56;;;;;;;20.90;5.83;;;22.60;93.60;;;;;;5047553;28;21103;-67
2022/07/14 03:00:22;;;;;;;15.10;3.80;;;22.50;94.00;;;;;;5047869;28;20189;-66
2022/07/14 03:02:48;;;;;;;9.13;2.97;;;22.30;94.90;;;;;;5048570;28;20190;-66
2022/07/14 03:05:14;;;;;;;10.97;3.50;;;22.30;94.80;;;;;;5048879;28;20324;-67
2022/07/14 03:07:41;;;;;;;24.37;4.90;;;22.40;95.20;;;;;;5047697;28;20204;-67
2022/07/14 03:10:08;;;;;;;19.87;4.30;;;22.30;94.70;;;;;;5048398;28;20476;-67
2022/07/14 03:12:33;;;;;;;7.80;3.00;;;22.20;95.00;;;;;;5050644;28;20409;-67
2022/07/14 03:15:00;;;;;;;20.03;4.77;;;22.00;95.00;;;;;;5053128;28;20429;-66
2022/07/14 03:17:26;;;;;;;7.60;3.27;;;22.00;96.00;;;;;;5051826;28;20175;-66
2022/07/14 03:19:52;;;;;;;26.37;4.83;;;22.00;96.60;;;;;;5052646;28;20417;-66
2022/07/14 03:22:17;;;;;;;15.63;4.90;;;22.10;97.80;;;;;;5033696;28;20178;-66
2022/07/14 03:24:43;;;;;;;19.27;3.87;;;22.10;98.10;;;;;;5050924;28;20175;-66
2022/07/14 03:27:09;;;;;;;12.20;3.80;;;22.20;98.70;;;;;;5051421;28;20190;-67
2022/07/14 03:29:34;;;;;;;7.90;3.10;;;22.20;98.90;;;;;;5052026;28;20264;-66
2022/07/14 03:32:00;;;;;;;25.53;4.43;;;22.20;99.30;;;;;;5051509;28;20198;-67
2022/07/14 03:34:26;;;;;;;52.57;7.43;;;22.10;99.20;;;;;;5052496;28;20501;-67
2022/07/14 03:36:51;;;;;;;35.50;6.90;;;22.10;99.10;;;;;;5051874;28;20178;-67
2022/07/14 03:39:17;;;;;;;29.77;6.50;;;22.10;99.40;;;;;;5051124;28;20167;-66
2022/07/14 03:41:43;;;;;;;20.47;4.23;;;22.10;99.30;;;;;;5051832;28;20462;-67
2022/07/14 03:44:08;;;;;;;24.23;4.20;;;22.10;99.60;;;;;;5072226;28;20175;-66
2022/07/14 03:46:34;;;;;;;14.77;3.10;;;22.10;99.90;;;;;;5071901;28;20212;-66
2022/07/14 03:49:00;;;;;;;12.83;3.00;;;22.10;99.90;;;;;;5071145;28;20173;-67
2022/07/14 03:51:26;;;;;;;5.53;3.10;;;22.10;99.90;;;;;;5071960;28;20256;-67
2022/07/14 03:53:51;;;;;;;8.93;2.83;;;22.10;99.90;;;;;;5071728;28;20170;-66
2022/07/14 03:56:18;;;;;;;29.60;3.93;;;22.10;99.90;;;;;;5059159;28;20583;-65
2022/07/14 03:58:43;;;;;;;45.17;5.53;;;22.20;99.60;;;;;;5050889;28;20186;-67
2022/07/14 04:01:09;;;;;;;20.97;4.17;;;22.10;99.70;;;;;;5051407;28;20425;-64
2022/07/14 04:03:35;;;;;;;20.20;3.70;;;22.30;99.90;;;;;;5051856;28;20171;-66
2022/07/14 04:06:01;;;;;;;60.87;7.00;;;22.50;99.80;;;;;;5051598;28;20543;-66
2022/07/14 04:08:26;;;;;;;17.07;4.50;;;22.60;99.80;;;;;;5050279;28;20171;-66
2022/07/14 04:10:52;;;;;;;38.57;5.90;;;22.70;99.10;;;;;;5051151;28;20233;-65
2022/07/14 04:13:18;;;;;;;35.47;4.70;;;22.60;99.40;;;;;;5051185;28;20170;-65
2022/07/14 04:15:44;;;;;;;48.30;7.00;;;22.70;99.00;;;;;;5051338;28;20171;-65
2022/07/14 04:18:09;;;;;;;19.80;4.63;;;22.70;98.50;;;;;;5050225;28;20242;-65
2022/07/14 04:20:36;;;;;;;19.30;3.90;;;22.50;98.30;;;;;;5051217;28;20193;-66
2022/07/14 04:23:02;;;;;;;20.57;4.40;;;22.50;98.70;;;;;;5050987;28;20167;-67
2022/07/14 04:25:29;;;;;;;11.33;3.20;;;22.70;98.30;;;;;;5049199;28;20931;-67
2022/07/14 04:27:55;;;;;;;13.03;3.00;;;22.90;98.20;;;;;;5050503;28;20467;-67
2022/07/14 04:30:20;;;;;;;18.70;3.77;;;22.90;99.90;;;;;;5050369;28;20461;-67
2022/07/14 04:32:46;;;;;;;34.67;5.03;;;22.90;97.60;;;;;;5050855;28;20255;-67
2022/07/14 04:35:12;;;;;;;16.00;4.30;;;22.80;97.00;;;;;;5051255;28;20185;-66
2022/07/14 04:37:38;;;;;;;35.40;4.23;;;22.70;96.10;;;;;;5050542;28;20186;-64
2022/07/14 04:40:05;;;;;;;21.87;3.87;;;22.60;95.50;;;;;;5050609;28;20535;-64
2022/07/14 04:42:31;;;;;;;39.83;6.87;;;22.50;94.90;;;;;;5057615;28;20420;-64
2022/07/14 04:44:57;;;;;;;20.60;4.40;;;22.40;94.80;;;;;;5071317;28;20408;-65
2022/07/14 04:47:22;;;;;;;44.00;6.70;;;22.60;95.10;;;;;;5070340;28;20178;-65
2022/07/14 04:52:32;;;;;;;34.73;5.30;;;23.20;95.20;;;;;;5071945;28;20673;-65
2022/07/14 04:54:58;;;;;;;76.03;9.00;;;23.60;95.20;;;;;;5070296;28;20432;-64
2022/07/14 04:57:24;;;;;;;68.00;10.77;;;23.80;94.50;;;;;;5051450;28;20170;-66
2022/07/14 04:59:49;;;;;;;52.40;6.63;;;24.10;93.80;;;;;;5052141;28;20276;-65
2022/07/14 05:02:15;;;;;;;4.20;2.70;;;24.30;92.80;;;;;;5051508;28;20163;-67
2022/07/14 05:04:41;;;;;;;20.43;3.67;;;24.30;91.70;;;;;;5052232;28;20346;-66
2022/07/14 05:07:06;;;;;;;29.93;4.90;;;24.30;91.00;;;;;;5050297;28;20179;-64
2022/07/14 05:09:33;;;;;;;91.73;10.53;;;24.40;90.80;;;;;;5051544;28;20943;-65
2022/07/14 05:12:03;;;;;;;22.80;4.50;;;24.20;90.40;;;;;;5051609;28;20194;-65
2022/07/14 05:14:32;;;;;;;31.73;5.93;;;24.00;90.50;;;;;;5052091;28;20405;-64
2022/07/14 05:16:57;;;;;;;33.03;5.37;;;24.00;91.30;;;;;;5049848;28;20409;-64
2022/07/14 05:19:23;;;;;;;30.93;5.40;;;23.90;91.30;;;;;;5049870;28;20643;-64
2022/07/14 05:21:49;;;;;;;48.00;7.60;;;24.10;92.00;;;;;;5050391;28;20170;-64
2022/07/14 05:24:15;;;;;;;54.47;7.37;;;24.30;92.10;;;;;;5049713;28;20566;-64
2022/07/14 05:26:41;;;;;;;43.97;5.77;;;24.50;92.20;;;;;;5050326;28;20175;-66
2022/07/14 05:29:07;;;;;;;26.37;5.17;;;24.30;91.80;;;;;;5050847;28;20440;-65
2022/07/14 05:31:33;;;;;;;13.60;5.30;;;24.30;92.40;;;;;;5050826;28;20202;-66
2022/07/14 05:33:59;;;;;;;34.13;6.60;;;24.50;93.50;;;;;;5049983;28;20167;-66
2022/07/14 05:36:25;;;;;;;22.03;5.43;;;24.70;94.50;;;;;;5051495;28;20405;-65
2022/07/14 05:38:51;;;;;;;17.00;4.60;;;24.80;94.20;;;;;;5051122;28;20167;-64
2022/07/14 05:41:19;;;;;;;23.80;5.83;;;24.90;93.50;;;;;;5051552;28;20925;-65
2022/07/14 05:43:46;;;;;;;102.73;13.47;;;25.00;93.90;;;;;;5067336;28;20412;-64
2022/07/14 05:46:12;;;;;;;65.83;9.70;;;25.30;94.10;;;;;;5070307;28;20408;-65
2022/07/14 05:48:38;;;;;;;38.13;7.80;;;25.50;94.20;;;;;;5069618;28;20461;-66
2022/07/14 05:51:07;;;;;;;34.60;6.90;;;25.30;93.80;;;;;;5070411;28;20650;-65
2022/07/14 05:53:33;;;;;;;37.23;7.33;;;25.20;93.20;;;;;;5052105;28;20174;-64
2022/07/14 05:55:59;;;;;;;31.60;7.10;;;25.10;93.50;;;;;;5060685;28;20432;-64
2022/07/14 05:58:25;;;;;;;54.67;8.30;;;24.70;92.60;;;;;;5049219;28;20413;-62
2022/07/14 06:00:51;;;;;;;22.13;5.90;;;24.60;92.80;;;;;;5050436;28;20197;-65
2022/07/14 06:03:18;;;;;;;32.57;6.80;;;24.50;93.20;;;;;;5049813;28;20182;-65
2022/07/14 06:05:44;;;;;;;86.50;13.83;;;24.50;94.00;;;;;;5050335;28;20179;-64
2022/07/14 06:08:10;;;;;;;38.50;7.43;;;25.00;95.30;;;;;;5049080;28;20409;-64
2022/07/14 06:10:37;;;;;;;14.23;5.60;;;25.30;95.10;;;;;;5050036;28;20210;-64
2022/07/14 06:13:03;;;;;;;26.43;5.80;;;25.40;95.50;;;;;;5049385;28;20869;-64
2022/07/14 06:15:30;;;;;;;71.10;10.53;;;25.50;95.40;;;;;;5049730;28;20413;-62
2022/07/14 06:17:58;;;;;;;27.60;5.60;;;25.80;95.50;;;;;;5042237;28;20421;-64
2022/07/14 06:20:24;;;;;;;33.60;5.70;;;26.00;95.00;;;;;;5029943;28;20481;-63
2022/07/14 06:22:54;;;;;;;33.70;6.10;;;26.20;95.00;;;;;;5060187;28;20921;-64
2022/07/14 06:25:21;;;;;;;36.43;8.30;;;26.40;94.60;;;;;;5067842;28;20412;-64
2022/07/14 06:27:46;;;;;;;27.33;6.43;;;26.60;94.00;;;;;;5059702;28;20730;-64
2022/07/14 06:30:12;;;;;;;11.47;5.97;;;26.70;93.00;;;;;;5048620;28;20452;-64
2022/07/14 06:32:39;;;;;;;31.77;6.10;;;26.80;92.50;;;;;;5048445;28;20200;-65
2022/07/14 06:35:06;;;;;;;86.87;10.87;;;27.00;91.60;;;;;;5046298;28;20341;-64
2022/07/14 06:37:34;;;;;;;40.03;9.27;;;27.20;91.20;;;;;;5046088;28;20417;-64
2022/07/14 06:40:05;;;;;;;87.23;11.03;;;27.30;90.80;;;;;;5037338;28;20471;-64
2022/07/14 06:42:32;;;;;;;92.27;9.97;;;27.40;90.50;;;;;;5038589;28;20810;-64
2022/07/14 06:44:57;;;;;;;43.83;6.77;;;27.50;89.60;;;;;;5033810;28;20446;-63
2022/07/14 06:47:23;;;;;;;86.03;10.60;;;27.60;86.60;;;;;;5034463;28;20788;-64
2022/07/14 06:49:49;;;;;;;39.60;7.80;;;27.70;85.70;;;;;;5035478;28;20215;-64
2022/07/14 06:52:15;;;;;;;17.00;3.40;;;27.90;82.70;;;;;;5029554;28;20632;-68
2022/07/14 06:54:40;;;;;;;22.37;4.33;;;27.80;76.00;;;;;;5041578;28;20185;-67
2022/07/14 06:57:06;;;;;;;19.00;4.20;;;27.80;72.60;;;;;;5035821;28;20167;-67
2022/07/14 06:59:32;;;;;;;42.07;7.03;;;28.00;71.20;;;;;;5036670;28;20314;-67
2022/07/14 07:01:58;;;;;;;13.10;3.77;;;28.20;69.30;;;;;;5038334;28;20187;-66
2022/07/14 07:04:24;;;;;;;9.60;3.40;;;28.40;68.50;;;;;;5030596;28;20267;-68
2022/07/14 07:06:50;;;;;;;14.83;4.93;;;28.40;62.70;;;;;;5031887;28;20186;-66
2022/07/14 07:09:18;;;;;;;13.20;4.27;;;28.50;61.20;;;;;;5043665;28;20162;-67
2022/07/14 07:11:45;;;;;;;13.57;3.80;;;28.50;59.40;;;;;;5042912;28;20452;-67
2022/07/14 07:14:12;;;;;;;33.87;5.57;;;28.70;58.30;;;;;;5041507;28;20413;-67
2022/07/14 07:16:38;;;;;;;35.60;5.63;;;28.80;57.50;;;;;;5038429;28;20913;-67
2022/07/14 07:19:04;;;;;;;48.90;6.37;;;28.80;54.10;;;;;;5034987;28;20417;-68
2022/07/14 07:21:30;;;;;;;33.63;4.80;;;28.90;52.40;;;;;;5037947;28;20586;-68
2022/07/14 07:23:56;;;;;;;36.20;5.90;;;29.00;50.80;;;;;;5033274;28;20418;-68
2022/07/14 07:26:25;;;;;;;39.90;7.37;;;29.00;49.60;;;;;;5029451;28;20497;-67
2022/07/14 07:28:54;;;;;;;17.40;3.93;;;29.30;49.00;;;;;;5028410;28;21017;-69
2022/07/14 07:31:20;;;;;;;32.70;4.83;;;29.30;47.50;;;;;;5028262;28;20469;-67
2022/07/14 07:33:47;;;;;;;37.97;5.00;;;29.00;45.50;;;;;;5030170;28;20429;-67
2022/07/14 07:36:13;;;;;;;7.50;2.80;;;29.10;45.20;;;;;;5028518;28;20414;-68
2022/07/14 07:38:39;;;;;;;31.03;5.33;;;29.00;43.90;;;;;;5028711;28;20414;-68
2022/07/14 07:41:05;;;;;;;29.07;4.93;;;29.10;43.50;;;;;;5031578;28;20443;-68
2022/07/14 07:43:31;;;;;;;38.23;6.13;;;28.80;42.30;;;;;;5034434;28;20643;-69
2022/07/14 07:45:57;;;;;;;31.67;4.70;;;28.80;40.90;;;;;;5028635;28;20501;-68
2022/07/14 07:48:23;;;;;;;28.63;5.20;;;28.90;39.40;;;;;;5030271;28;20289;-68
2022/07/14 07:50:49;;;;;;;69.07;9.10;;;29.00;39.80;;;;;;5034290;28;20195;-68
2022/07/14 07:53:15;;;;;;;132.67;12.87;;;29.30;40.20;;;;;;5043008;28;20220;-66
2022/07/14 07:55:41;;;;;;;34.17;5.20;;;29.70;39.40;;;;;;5042106;28;20421;-68
2022/07/14 07:58:07;;;;;;;21.17;5.40;;;29.60;36.70;;;;;;5038666;28;20508;-70
2022/07/14 08:00:33;;;;;;;42.83;5.87;;;29.40;35.80;;;;;;5035613;28;20437;-69
2022/07/14 08:03:01;;;;;;;55.27;6.87;;;29.40;35.40;;;;;;5043759;28;20449;-69
2022/07/14 08:05:28;;;;;;;49.40;7.70;;;29.60;35.10;;;;;;5046523;28;20425;-68
2022/07/14 08:07:54;;;;;;;45.80;6.70;;;29.80;33.40;;;;;;5044207;28;20426;-68
2022/07/14 08:10:21;;;;;;;38.77;5.73;;;30.00;33.40;;;;;;5045642;28;20460;-69
2022/07/14 08:12:47;;;;;;;295.67;23.87;;;29.90;30.60;;;;;;5043743;28;20412;-69
2022/07/14 08:15:14;;;;;;;122.03;13.37;;;29.90;29.60;;;;;;5045436;28;21095;-68
2022/07/14 08:17:41;;;;;;;53.10;5.70;;;29.50;28.80;;;;;;5041123;28;20482;-67
2022/07/14 08:20:08;;;;;;;61.30;7.10;;;29.60;28.70;;;;;;5045317;28;20462;-67
2022/07/14 08:22:35;;;;;;;105.60;11.70;;;29.40;27.90;;;;;;5044955;28;20470;-67
2022/07/14 08:25:01;;;;;;;29.00;5.73;;;29.40;28.00;;;;;;5037341;28;20423;-69
2022/07/14 08:27:27;;;;;;;19.50;4.30;;;29.60;27.80;;;;;;5030470;28;20699;-69
2022/07/14 08:29:54;;;;;;;88.37;11.27;;;29.90;27.00;;;;;;5032525;28;20430;-68
2022/07/14 08:32:38;;;;;;;15.97;4.33;;;30.20;26.40;;;;;;5032855;28;20433;-67
2022/07/14 08:35:05;;;;;;;43.37;6.07;;;30.10;25.30;;;;;;5043142;28;20512;-66
2022/07/14 08:37:31;;;;;;;35.43;5.20;;;30.10;25.30;;;;;;5040555;28;20467;-67
2022/07/14 08:39:57;;;;;;;19.00;5.00;;;30.20;24.90;;;;;;5051266;28;20441;-66
2022/07/14 08:42:23;;;;;;;19.87;4.23;;;30.50;24.20;;;;;;5039655;28;20174;-66
2022/07/14 08:44:49;;;;;;;69.57;7.60;;;30.60;22.10;;;;;;5033087;28;20198;-64
2022/07/14 08:47:15;;;;;;;74.00;8.07;;;30.60;20.40;;;;;;5033499;28;20178;-65
2022/07/14 08:49:43;;;;;;;13.77;2.93;;;30.70;18.40;;;;;;5031991;28;20449;-64
2022/07/14 08:52:11;;;;;;;64.30;6.83;;;30.50;16.70;;;;;;5041712;28;20535;-64
2022/07/14 08:54:38;;;;;;;38.30;5.53;;;30.40;15.30;;;;;;5031396;28;20769;-65
2022/07/14 08:57:04;;;;;;;104.87;12.80;;;30.60;15.30;;;;;;5047218;28;20413;-66
2022/07/14 08:59:30;;;;;;;160.90;17.93;;;30.80;15.10;;;;;;5045481;28;20514;-66
2022/07/14 09:01:58;;;;;;;57.33;7.83;;;30.90;14.10;;;;;;5050146;28;20174;-65
2022/07/14 09:04:24;;;;;;;22.40;4.10;;;31.10;14.00;;;;;;5050619;28;20182;-65
2022/07/14 09:06:52;;;;;;;11.53;3.30;;;31.30;12.20;;;;;;5037208;28;20930;-64
2022/07/14 09:09:21;;;;;;;24.27;4.90;;;31.30;10.50;;;;;;5028521;28;20513;-64
2022/07/14 09:11:51;;;;;;;20.90;3.70;;;31.20;9.30;;;;;;5058317;28;20486;-64
2022/07/14 09:14:17;;;;;;;13.53;3.40;;;31.10;8.60;;;;;;5050841;28;20424;-63
2022/07/14 09:16:43;;;;;;;22.27;5.20;;;31.20;7.80;;;;;;5046286;28;20492;-63
2022/07/14 09:19:13;;;;;;;26.60;4.17;;;31.10;6.70;;;;;;5046463;28;20886;-63
2022/07/14 09:21:44;;;;;;;27.50;5.33;;;30.90;5.50;;;;;;5047700;28;20255;-64
2022/07/14 09:24:14;;;;;;;21.77;3.87;;;30.90;3.70;;;;;;5047712;28;20190;-65
2022/07/14 09:26:48;;;;;;;17.80;3.53;;;30.90;1.50;;;;;;5045223;28;20424;-66
2022/07/14 09:29:18;;;;;;;23.97;3.53;;;30.90;1.00;;;;;;5033430;28;20640;-62
2022/07/14 09:31:44;;;;;;;10.63;2.50;;;30.80;1.00;;;;;;5055372;28;20460;-65
2022/07/14 09:34:22;;;;;;;15.27;3.10;;;30.80;1.00;;;;;;5037200;28;20493;-66
2022/07/14 09:36:48;;;;;;;16.47;4.10;;;30.90;1.00;;;;;;5032618;28;20417;-64
2022/07/14 09:39:15;;;;;;;6.07;2.27;;;31.00;1.00;;;;;;5033777;28;20582;-65
2022/07/14 09:41:55;;;;;;;16.37;2.83;;;31.10;1.00;;;;;;5047821;28;20501;-64
2022/07/14 09:44:22;;;;;;;4.00;2.20;;;31.10;1.00;;;;;;5049621;28;20602;-64
2022/07/14 09:46:57;;;;;;;16.80;2.83;;;31.10;1.00;;;;;;5040301;28;20414;-64
2022/07/14 09:49:27;;;;;;;9.10;3.00;;;31.00;1.00;;;;;;5041126;28;20661;-65
2022/07/14 09:52:00;;;;;;;17.30;3.40;;;31.30;1.00;;;;;;5054876;22;20513;-71
2022/07/14 09:54:39;;;;;;;6.50;2.40;;;31.40;1.00;;;;;;5023502;28;20817;-72
2022/07/14 09:57:24;;;;;;;24.10;4.13;;;31.40;1.00;;;;;;5028682;28;20406;-71
2022/07/14 10:00:12;;;;;;;35.73;4.10;;;31.40;1.00;;;;;;5029611;28;20427;-70
2022/07/14 10:02:40;;;;;;;36.47;4.50;;;31.40;1.00;;;;;;5017479;28;20435;-70
2022/07/14 10:05:09;;;;;;;30.97;4.20;;;31.60;1.00;;;;;;5014744;28;20909;-70
2022/07/14 10:07:38;;;;;;;3.03;2.10;;;31.60;1.00;;;;;;5018613;28;20511;-71
2022/07/14 10:10:08;;;;;;;7.60;3.23;;;31.50;1.00;;;;;;5015373;28;20168;-72
2022/07/14 10:12:36;;;;;;;6.43;2.37;;;31.50;1.00;;;;;;5011259;28;20525;-71
2022/07/14 10:15:10;;;;;;;24.67;3.80;;;31.60;1.00;;;;;;5018701;28;20187;-71
2022/07/14 10:17:39;;;;;;;10.97;3.03;;;31.50;1.00;;;;;;5011931;28;20268;-70
2022/07/14 10:20:08;;;;;;;42.30;5.13;;;31.50;1.00;;;;;;5025281;28;20556;-70
2022/07/14 10:22:35;;;;;;;14.03;3.13;;;31.60;1.00;;;;;;5026238;28;21027;-70
2022/07/14 10:25:03;;;;;;;4.97;2.20;;;31.60;1.00;;;;;;5025386;28;20174;-71
2022/07/14 10:27:29;;;;;;;17.77;3.70;;;31.50;1.00;;;;;;5025710;28;20424;-70
2022/07/14 10:29:59;;;;;;;19.17;3.20;;;31.50;1.00;;;;;;5025912;28;20171;-70
2022/07/14 10:32:43;;;;;;;6.60;2.60;;;31.50;1.00;;;;;;5020087;28;20309;-70
2022/07/14 10:35:43;;;;;;;21.07;3.70;;;31.50;1.00;;;;;;5018414;28;20873;-72
2022/07/14 10:38:29;;;;;;;20.13;3.90;;;31.50;1.00;;;;;;5022913;28;20418;-68
2022/07/14 10:41:15;;;;;;;17.17;3.30;;;31.50;1.00;;;;;;5010443;28;20760;-68
2022/07/14 10:44:05;;;;;;;17.33;3.10;;;31.50;1.00;;;;;;5033502;28;20414;-68
2022/07/14 10:46:35;;;;;;;17.90;3.33;;;31.50;1.00;;;;;;5016867;28;20487;-70
2022/07/14 10:49:03;;;;;;;32.70;4.90;;;31.60;1.00;;;;;;5024829;28;20172;-68
2022/07/14 10:51:32;;;;;;;6.30;2.40;;;31.60;1.00;;;;;;5015835;28;20464;-68
2022/07/14 10:54:09;;;;;;;16.03;3.30;;;31.70;1.00;;;;;;5012387;28;20167;-70
2022/07/14 10:56:36;;;;;;;23.53;3.93;;;31.70;1.00;;;;;;5012034;28;21168;-69
2022/07/14 10:59:26;;;;;;;12.27;2.97;;;31.60;1.00;;;;;;5011274;28;20410;-69
2022/07/14 11:02:11;;;;;;;32.63;4.53;;;31.50;1.00;;;;;;5012227;28;20441;-70
2022/07/14 11:04:59;;;;;;;34.93;4.60;;;31.60;1.00;;;;;;5020475;28;20414;-69
2022/07/14 11:07:40;;;;;;;35.50;4.87;;;31.50;1.00;;;;;;5018738;28;20749;-69
2022/07/14 11:10:26;;;;;;;16.80;3.70;;;31.40;1.00;;;;;;5024053;28;20937;-69
2022/07/14 11:13:06;;;;;;;18.80;3.90;;;31.30;1.00;;;;;;5025229;28;20539;-68
2022/07/14 11:15:40;;;;;;;6.27;2.90;;;31.30;1.00;;;;;;5012545;28;20871;-68
2022/07/14 11:18:27;;;;;;;11.67;3.47;;;31.50;1.00;;;;;;5011974;28;20421;-67
2022/07/14 11:20:55;;;;;;;10.83;3.30;;;31.50;1.00;;;;;;5011794;28;20422;-68
2022/07/14 11:23:24;;;;;;;25.77;4.60;;;31.60;1.00;;;;;;5021967;28;20419;-68
2022/07/14 11:25:51;;;;;;;15.37;3.30;;;31.50;1.00;;;;;;5015737;28;21069;-68
2022/07/14 11:28:41;;;;;;;6.13;2.90;;;31.50;1.00;;;;;;5015193;28;20179;-68
2022/07/14 11:31:11;;;;;;;3.90;2.10;;;31.60;1.00;;;;;;5023381;28;20266;-67
2022/07/14 11:36:28;;;;;;;38.70;5.00;;;31.90;1.00;;;;;;5021567;28;20526;-68
2022/07/14 11:39:34;;;;;;;14.07;4.93;;;31.90;1.00;;;;;;5032257;28;20164;-67
2022/07/14 11:42:11;;;;;;;32.30;5.03;;;31.90;1.00;;;;;;5004419;28;20206;-67
2022/07/14 11:44:40;;;;;;;17.87;3.37;;;32.00;1.00;;;;;;5028087;28;20197;-67
2022/07/14 11:47:05;;;;;;;55.30;6.20;;;31.90;1.00;;;;;;5017010;28;20172;-69
2022/07/14 11:49:32;;;;;;;14.17;3.17;;;31.80;1.00;;;;;;5029631;28;20179;-68
2022/07/14 11:51:59;;;;;;;29.13;4.83;;;31.70;1.00;;;;;;5024656;28;20616;-68
2022/07/14 11:54:26;;;;;;;3.07;2.20;;;31.60;1.00;;;;;;5025810;28;20654;-68
2022/07/14 11:57:19;;;;;;;6.53;2.50;;;31.60;1.00;;;;;;5025334;28;20413;-67
2022/07/14 11:59:44;;;;;;;17.00;2.97;;;31.50;1.00;;;;;;5026504;28;20522;-68
2022/07/14 12:02:15;;;;;;;4.27;2.80;;;31.50;1.00;;;;;;5015483;28;20442;-68
2022/07/14 12:04:51;;;;;;;11.03;2.83;;;31.40;1.00;;;;;;5013097;28;20168;-67
2022/07/14 12:07:17;;;;;;;10.27;3.03;;;31.60;1.00;;;;;;5012205;28;20174;-67
2022/07/14 12:09:42;;;;;;;5.20;2.17;;;31.70;1.00;;;;;;5014041;28;20593;-68
2022/07/14 12:12:08;;;;;;;3.80;2.43;;;31.90;1.00;;;;;;5026530;28;20495;-68
2022/07/14 12:14:50;;;;;;;41.47;5.00;;;32.10;1.00;;;;;;5019237;28;20179;-68
2022/07/14 12:17:17;;;;;;;16.47;3.40;;;32.10;1.00;;;;;;5024872;28;20171;-73
2022/07/14 12:19:44;;;;;;;20.73;3.13;;;32.20;1.00;;;;;;5015574;28;20199;-67
2022/07/14 12:22:10;;;;;;;6.47;2.27;;;32.30;1.00;;;;;;5015710;28;20855;-73
2022/07/14 12:24:37;;;;;;;7.43;2.80;;;32.20;1.00;;;;;;5023499;28;20205;-73
2022/07/14 12:27:08;;;;;;;12.23;2.97;;;32.20;1.00;;;;;;5025438;28;20217;-71
2022/07/14 12:29:35;;;;;;;16.53;2.70;;;32.20;1.00;;;;;;5029228;28;20582;-68
2022/07/14 12:32:02;;;;;;;9.20;2.87;;;32.10;1.00;;;;;;5021665;28;20214;-67
2022/07/14 12:34:30;;;;;;;4.40;2.13;;;32.10;1.00;;;;;;5056623;28;20253;-68
2022/07/14 12:37:04;;;;;;;4.73;2.47;;;32.10;1.00;;;;;;5048435;28;20198;-69
2022/07/14 12:39:31;;;;;;;20.90;3.70;;;32.10;1.00;;;;;;5052583;28;20533;-69
2022/07/14 12:41:59;;;;;;;17.30;3.87;;;32.10;1.00;;;;;;5058098;28;20214;-68
2022/07/14 12:44:25;;;;;;;5.83;2.80;;;32.10;1.00;;;;;;5065755;28;20190;-68
2022/07/14 12:47:17;;;;;;;14.60;3.73;;;32.10;1.00;;;;;;5077451;28;20408;-68
2022/07/14 12:49:47;;;;;;;6.10;2.23;;;32.20;1.00;;;;;;5049325;28;20726;-69
2022/07/14 12:52:14;;;;;;;12.73;3.60;;;32.20;1.00;;;;;;5048813;28;20202;-69
2022/07/14 12:54:41;;;;;;;4.00;3.00;;;32.20;1.00;;;;;;5043833;28;20186;-71
2022/07/14 12:57:17;;;;;;;5.63;3.00;;;32.30;1.00;;;;;;5033402;28;20170;-71
2022/07/14 12:59:43;;;;;;;9.67;2.90;;;32.30;1.00;;;;;;5031768;28;20213;-71